LFBH/LRH METAR and TAF weather

Enter ICAO airport designator
Station Type Date Time Source
LFBH METAR 2022/11/30 16:00 UTC NOAA

LFBH 301600Z AUTO 06009KT CAVOK 08/06 Q1020 TEMPO BKN014


Station Type Date Time Source
LFBH Decoded METAR 2022/11/30 16:00 UTC NOAA

La Rochelle, France (LFBH) 46-09N 001-09W 10M
Nov 30, 2022 - 11:00 AM EST / 2022.11.30 1600 UTC
Wind: from the ENE (060 degrees) at 10 MPH (9 KT):0
Visibility: greater than 7 mile(s):0
Temperature: 46 F (8 C)
Dew Point: 42 F (6 C)
Relative Humidity: 87%
Pressure (altimeter): 30.12 in. Hg (1020 hPa)
ob: LFBH 301600Z AUTO 06009KT CAVOK 08/06 Q1020 TEMPO BKN014
cycle: 16

Station Type Date Time Source
LFBH TAF 2022/11/30 12:45 UTC NOAA

TAF LFBH 301100Z 3012/0112 05009KT 9999 SCT005
TEMPO 3012/3015 BKN005
TEMPO 3015/0106 BKN014
TEMPO 0106/0112 BKN009

Example: see airport list